sensor_id;sensor_type;location;lat;lon;timestamp;pressure;altitude;pressure_sealevel;temperature;humidity
34081;BME280;20358;50.272;19.026;2023-02-16T00:00:26;99166.88;;;-0.67;63.59
34081;BME280;20358;50.272;19.026;2023-02-16T00:03:34;99164.31;;;-0.68;63.50
34081;BME280;20358;50.272;19.026;2023-02-16T00:06:42;99155.72;;;-0.72;63.55
34081;BME280;20358;50.272;19.026;2023-02-16T00:09:49;99156.63;;;-0.73;63.64
34081;BME280;20358;50.272;19.026;2023-02-16T00:12:54;99158.34;;;-0.75;63.67
34081;BME280;20358;50.272;19.026;2023-02-16T00:16:18;99165.47;;;-0.86;63.83
34081;BME280;20358;50.272;19.026;2023-02-16T00:19:27;99164.69;;;-0.91;63.90
34081;BME280;20358;50.272;19.026;2023-02-16T00:22:37;99158.72;;;-0.96;63.95
34081;BME280;20358;50.272;19.026;2023-02-16T00:25:43;99149.22;;;-0.98;64.06
34081;BME280;20358;50.272;19.026;2023-02-16T00:28:52;99140.69;;;-1.05;64.27
34081;BME280;20358;50.272;19.026;2023-02-16T00:32:02;99136.50;;;-1.12;64.53
34081;BME280;20358;50.272;19.026;2023-02-16T00:35:13;99141.78;;;-1.21;64.34
34081;BME280;20358;50.272;19.026;2023-02-16T00:38:22;99137.63;;;-1.30;65.01
34081;BME280;20358;50.272;19.026;2023-02-16T00:41:30;99139.50;;;-1.41;65.19
34081;BME280;20358;50.272;19.026;2023-02-16T00:44:56;99142.28;;;-1.54;65.26
34081;BME280;20358;50.272;19.026;2023-02-16T00:48:04;99138.06;;;-1.61;65.54
34081;BME280;20358;50.272;19.026;2023-02-16T00:51:10;99125.25;;;-1.73;65.85
34081;BME280;20358;50.272;19.026;2023-02-16T00:54:30;99125.19;;;-1.66;66.14
34081;BME280;20358;50.272;19.026;2023-02-16T00:57:41;99122.59;;;-1.66;66.05
34081;BME280;20358;50.272;19.026;2023-02-16T01:00:53;99126.03;;;-1.67;65.80
34081;BME280;20358;50.272;19.026;2023-02-16T01:04:06;99125.22;;;-1.70;66.29
34081;BME280;20358;50.272;19.026;2023-02-16T01:07:17;99116.69;;;-1.78;66.30
34081;BME280;20358;50.272;19.026;2023-02-16T01:10:43;99109.78;;;-1.76;66.53
34081;BME280;20358;50.272;19.026;2023-02-16T01:14:11;99109.69;;;-1.70;66.35
34081;BME280;20358;50.272;19.026;2023-02-16T01:17:17;99107.91;;;-1.68;65.85
34081;BME280;20358;50.272;19.026;2023-02-16T01:20:25;99107.88;;;-1.65;65.76
34081;BME280;20358;50.272;19.026;2023-02-16T01:23:33;99100.91;;;-1.60;65.64
34081;BME280;20358;50.272;19.026;2023-02-16T01:26:46;99091.34;;;-1.55;65.99
34081;BME280;20358;50.272;19.026;2023-02-16T01:29:54;99092.09;;;-1.47;65.35
34081;BME280;20358;50.272;19.026;2023-02-16T01:33:02;99091.22;;;-1.46;65.40
34081;BME280;20358;50.272;19.026;2023-02-16T01:36:21;99090.44;;;-1.51;64.98
34081;BME280;20358;50.272;19.026;2023-02-16T01:39:33;99092.13;;;-1.50;65.72
34081;BME280;20358;50.272;19.026;2023-02-16T01:42:50;99088.66;;;-1.49;65.39
34081;BME280;20358;50.272;19.026;2023-02-16T01:46:04;99084.34;;;-1.49;64.77
34081;BME280;20358;50.272;19.026;2023-02-16T01:49:18;99090.50;;;-1.57;65.21
34081;BME280;20358;50.272;19.026;2023-02-16T01:52:31;99088.84;;;-1.61;65.74
34081;BME280;20358;50.272;19.026;2023-02-16T01:55:44;99077.81;;;-1.75;65.93
34081;BME280;20358;50.272;19.026;2023-02-16T01:59:03;99080.41;;;-1.75;66.02
34081;BME280;20358;50.272;19.026;2023-02-16T02:02:20;99087.28;;;-1.71;66.33
34081;BME280;20358;50.272;19.026;2023-02-16T02:05:30;99090.91;;;-1.84;66.62
34081;BME280;20358;50.272;19.026;2023-02-16T02:08:42;99082.34;;;-1.89;66.32
34081;BME280;20358;50.272;19.026;2023-02-16T02:12:05;99072.78;;;-1.84;66.28
34081;BME280;20358;50.272;19.026;2023-02-16T02:15:25;99072.72;;;-1.80;66.24
34081;BME280;20358;50.272;19.026;2023-02-16T02:18:37;99071.06;;;-1.84;66.55
34081;BME280;20358;50.272;19.026;2023-02-16T02:22:06;99076.28;;;-1.90;67.34
34081;BME280;20358;50.272;19.026;2023-02-16T02:30:23;99079.78;;;-1.93;67.06
34081;BME280;20358;50.272;19.026;2023-02-16T02:33:53;99076.47;;;-2.04;67.51
34081;BME280;20358;50.272;19.026;2023-02-16T02:37:14;99068.69;;;-2.04;68.03
34081;BME280;20358;50.272;19.026;2023-02-16T02:40:42;99078.94;;;-1.96;67.94
34081;BME280;20358;50.272;19.026;2023-02-16T02:44:04;99072.03;;;-1.93;67.89
34081;BME280;20358;50.272;19.026;2023-02-16T02:47:17;99062.53;;;-1.92;67.39
34081;BME280;20358;50.272;19.026;2023-02-16T02:50:46;99059.19;;;-2.00;67.64
34081;BME280;20358;50.272;19.026;2023-02-16T02:54:19;99070.28;;;-1.94;67.75
34081;BME280;20358;50.272;19.026;2023-02-16T02:57:49;99071.97;;;-1.89;67.74
34081;BME280;20358;50.272;19.026;2023-02-16T03:01:16;99076.22;;;-1.84;67.18
34081;BME280;20358;50.272;19.026;2023-02-16T03:04:29;99068.50;;;-1.88;67.26
34081;BME280;20358;50.272;19.026;2023-02-16T03:07:39;99078.00;;;-1.89;67.43
34081;BME280;20358;50.272;19.026;2023-02-16T03:10:54;99069.47;;;-1.96;66.94
34081;BME280;20358;50.272;19.026;2023-02-16T03:14:25;99075.47;;;-1.94;67.51
34081;BME280;20358;50.272;19.026;2023-02-16T03:17:37;99074.75;;;-2.03;67.31
34081;BME280;20358;50.272;19.026;2023-02-16T03:21:05;99075.53;;;-1.98;67.20
34081;BME280;20358;50.272;19.026;2023-02-16T03:24:29;99073.72;;;-1.92;67.01
34081;BME280;20358;50.272;19.026;2023-02-16T03:27:55;99074.56;;;-1.89;66.98
34081;BME280;20358;50.272;19.026;2023-02-16T03:31:27;99075.50;;;-1.97;67.23
34081;BME280;20358;50.272;19.026;2023-02-16T03:34:37;99071.22;;;-1.98;67.74
34081;BME280;20358;50.272;19.026;2023-02-16T03:37:45;99073.72;;;-1.92;67.54
34081;BME280;20358;50.272;19.026;2023-02-16T03:40:54;99065.97;;;-1.93;67.00
34081;BME280;20358;50.272;19.026;2023-02-16T03:43:59;99064.16;;;-1.86;67.46
34081;BME280;20358;50.272;19.026;2023-02-16T03:47:06;99055.44;;;-1.81;67.23
34081;BME280;20358;50.272;19.026;2023-02-16T03:50:12;99050.38;;;-1.87;66.89
34081;BME280;20358;50.272;19.026;2023-02-16T03:53:21;99058.97;;;-1.85;67.15
34081;BME280;20358;50.272;19.026;2023-02-16T03:56:27;99045.94;;;-1.80;66.96
34081;BME280;20358;50.272;19.026;2023-02-16T03:59:33;99051.09;;;-1.77;66.51
34081;BME280;20358;50.272;19.026;2023-02-16T04:02:38;99039.81;;;-1.72;66.63
34081;BME280;20358;50.272;19.026;2023-02-16T04:05:45;99052.81;;;-1.76;66.30
34081;BME280;20358;50.272;19.026;2023-02-16T04:08:54;99053.75;;;-1.83;67.16
34081;BME280;20358;50.272;19.026;2023-02-16T04:12:00;99042.66;;;-1.90;66.75
34081;BME280;20358;50.272;19.026;2023-02-16T04:15:23;99040.91;;;-1.89;67.40
34081;BME280;20358;50.272;19.026;2023-02-16T04:18:32;99042.63;;;-1.88;67.19
34081;BME280;20358;50.272;19.026;2023-02-16T04:21:38;99016.94;;;-2.04;67.33
34081;BME280;20358;50.272;19.026;2023-02-16T04:24:49;99033.19;;;-1.94;67.68
34081;BME280;20358;50.272;19.026;2023-02-16T04:27:55;99035.81;;;-1.96;67.04
34081;BME280;20358;50.272;19.026;2023-02-16T04:31:01;99028.88;;;-1.94;67.63
34081;BME280;20358;50.272;19.026;2023-02-16T04:34:08;99031.50;;;-1.97;67.16
34081;BME280;20358;50.272;19.026;2023-02-16T04:37:14;99034.94;;;-1.96;67.28
34081;BME280;20358;50.272;19.026;2023-02-16T04:40:22;99022.03;;;-1.98;67.31
34081;BME280;20358;50.272;19.026;2023-02-16T04:43:29;99030.72;;;-2.02;67.53
34081;BME280;20358;50.272;19.026;2023-02-16T04:46:34;99028.13;;;-2.02;67.84
34081;BME280;20358;50.272;19.026;2023-02-16T04:49:40;99027.19;;;-1.95;67.47
34081;BME280;20358;50.272;19.026;2023-02-16T04:52:46;99015.06;;;-1.93;67.92
34081;BME280;20358;50.272;19.026;2023-02-16T04:55:55;99023.66;;;-1.91;67.31
34081;BME280;20358;50.272;19.026;2023-02-16T04:59:00;99029.78;;;-1.95;67.70
34081;BME280;20358;50.272;19.026;2023-02-16T05:02:07;99029.84;;;-2.01;67.38
34081;BME280;20358;50.272;19.026;2023-02-16T05:05:13;99030.75;;;-2.05;68.34
34081;BME280;20358;50.272;19.026;2023-02-16T05:08:19;99029.91;;;-2.07;68.36
34081;BME280;20358;50.272;19.026;2023-02-16T05:11:27;99032.50;;;-2.07;67.93
34081;BME280;20358;50.272;19.026;2023-02-16T05:14:49;99033.41;;;-2.09;68.36
34081;BME280;20358;50.272;19.026;2023-02-16T05:17:55;99021.31;;;-2.09;68.77
34081;BME280;20358;50.272;19.026;2023-02-16T05:21:01;99017.00;;;-2.10;68.53
34081;BME280;20358;50.272;19.026;2023-02-16T05:24:22;99012.66;;;-2.06;68.54
34081;BME280;20358;50.272;19.026;2023-02-16T05:27:33;99022.94;;;-2.02;68.56
34081;BME280;20358;50.272;19.026;2023-02-16T05:30:38;99023.84;;;-2.03;68.10
34081;BME280;20358;50.272;19.026;2023-02-16T05:33:45;99021.25;;;-2.04;68.08
34081;BME280;20358;50.272;19.026;2023-02-16T05:36:50;98980.09;;;-2.22;68.18
34081;BME280;20358;50.272;19.026;2023-02-16T05:39:57;99028.81;;;-1.87;67.76
34081;BME280;20358;50.272;19.026;2023-02-16T05:43:05;99028.81;;;-1.89;67.93
34081;BME280;20358;50.272;19.026;2023-02-16T05:46:11;99031.47;;;-1.92;67.97
34081;BME280;20358;50.272;19.026;2023-02-16T05:49:17;99029.69;;;-1.90;67.98
34081;BME280;20358;50.272;19.026;2023-02-16T05:52:23;99025.38;;;-1.89;67.78
34081;BME280;20358;50.272;19.026;2023-02-16T05:55:29;99027.22;;;-1.99;67.99
34081;BME280;20358;50.272;19.026;2023-02-16T05:58:39;99033.25;;;-1.99;68.58
34081;BME280;20358;50.272;19.026;2023-02-16T06:01:45;99035.88;;;-2.02;68.21
34081;BME280;20358;50.272;19.026;2023-02-16T06:04:54;99038.56;;;-2.09;68.75
34081;BME280;20358;50.272;19.026;2023-02-16T06:07:59;99048.25;;;-2.25;69.27
34081;BME280;20358;50.272;19.026;2023-02-16T06:11:06;99015.88;;;-2.56;69.27
34081;BME280;20358;50.272;19.026;2023-02-16T06:14:34;99064.56;;;-2.15;70.02
34081;BME280;20358;50.272;19.026;2023-02-16T06:17:40;99063.66;;;-2.13;69.16
34081;BME280;20358;50.272;19.026;2023-02-16T06:20:48;99069.66;;;-2.12;69.29
34081;BME280;20358;50.272;19.026;2023-02-16T06:23:55;99059.41;;;-2.18;69.44
34081;BME280;20358;50.272;19.026;2023-02-16T06:27:00;99056.72;;;-2.11;69.49
34081;BME280;20358;50.272;19.026;2023-02-16T06:30:10;99055.00;;;-2.12;69.73
34081;BME280;20358;50.272;19.026;2023-02-16T06:33:16;99063.50;;;-2.01;70.17
34081;BME280;20358;50.272;19.026;2023-02-16T06:36:23;99064.38;;;-2.03;69.85
34081;BME280;20358;50.272;19.026;2023-02-16T06:39:29;99058.38;;;-2.07;69.76
34081;BME280;20358;50.272;19.026;2023-02-16T06:42:36;99052.47;;;-2.16;70.79
34081;BME280;20358;50.272;19.026;2023-02-16T06:45:45;99054.91;;;-2.03;70.45
34081;BME280;20358;50.272;19.026;2023-02-16T06:48:51;99061.03;;;-2.11;70.66
34081;BME280;20358;50.272;19.026;2023-02-16T06:51:57;99061.69;;;-1.96;70.39
34081;BME280;20358;50.272;19.026;2023-02-16T06:55:04;99087.56;;;-1.96;70.33
34081;BME280;20358;50.272;19.026;2023-02-16T06:58:10;99054.72;;;-1.91;70.04
34081;BME280;20358;50.272;19.026;2023-02-16T07:01:20;99052.09;;;-1.87;70.15
34081;BME280;20358;50.272;19.026;2023-02-16T07:04:27;99002.06;;;-2.57;69.68
34081;BME280;20358;50.272;19.026;2023-02-16T07:07:34;99064.00;;;-1.74;70.14
34081;BME280;20358;50.272;19.026;2023-02-16T07:10:41;99059.53;;;-1.63;70.16
34081;BME280;20358;50.272;19.026;2023-02-16T07:13:52;99060.28;;;-1.57;69.23
34081;BME280;20358;50.272;19.026;2023-02-16T07:17:00;99068.81;;;-1.50;69.19
34081;BME280;20358;50.272;19.026;2023-02-16T07:20:08;99075.59;;;-1.42;69.57
34081;BME280;20358;50.272;19.026;2023-02-16T07:23:18;99057.31;;;-1.31;69.11
34081;BME280;20358;50.272;19.026;2023-02-16T07:26:32;99072.84;;;-1.31;68.99
34081;BME280;20358;50.272;19.026;2023-02-16T07:29:41;99060.59;;;-1.20;68.75
34081;BME280;20358;50.272;19.026;2023-02-16T07:32:51;99050.19;;;-1.17;68.90
34081;BME280;20358;50.272;19.026;2023-02-16T07:35:57;99069.16;;;-1.16;69.11
34081;BME280;20358;50.272;19.026;2023-02-16T07:39:03;99066.25;;;-0.98;68.88
34081;BME280;20358;50.272;19.026;2023-02-16T07:42:09;99064.53;;;-0.96;68.49
34081;BME280;20358;50.272;19.026;2023-02-16T07:45:21;99061.56;;;-0.77;68.38
34081;BME280;20358;50.272;19.026;2023-02-16T07:48:29;99055.38;;;-0.68;67.99
34081;BME280;20358;50.272;19.026;2023-02-16T07:51:36;99059.75;;;-0.72;67.50
34081;BME280;20358;50.272;19.026;2023-02-16T07:54:42;99068.09;;;-0.54;68.01
34081;BME280;20358;50.272;19.026;2023-02-16T07:57:48;99062.59;;;-0.36;71.96
34081;BME280;20358;50.272;19.026;2023-02-16T08:01:07;99060.66;;;-0.27;66.92
34081;BME280;20358;50.272;19.026;2023-02-16T08:04:20;99056.13;;;-0.16;66.46
34081;BME280;20358;50.272;19.026;2023-02-16T08:07:27;99048.94;;;-0.05;66.03
34081;BME280;20358;50.272;19.026;2023-02-16T08:10:33;99043.53;;;0.06;66.48
34081;BME280;20358;50.272;19.026;2023-02-16T08:13:39;99053.09;;;0.04;66.00
34081;BME280;20358;50.272;19.026;2023-02-16T08:16:45;99049.69;;;0.02;65.77
34081;BME280;20358;50.272;19.026;2023-02-16T08:19:58;99038.41;;;0.03;66.43
34081;BME280;20358;50.272;19.026;2023-02-16T08:23:04;99045.94;;;0.15;65.66
34081;BME280;20358;50.272;19.026;2023-02-16T08:26:11;99050.94;;;0.24;65.19
34081;BME280;20358;50.272;19.026;2023-02-16T08:29:19;99053.28;;;0.36;65.35
34081;BME280;20358;50.272;19.026;2023-02-16T08:32:25;99052.13;;;0.48;65.02
34081;BME280;20358;50.272;19.026;2023-02-16T08:35:36;99057.88;;;0.62;64.56
34081;BME280;20358;50.272;19.026;2023-02-16T08:38:42;99043.78;;;0.71;63.77
34081;BME280;20358;50.272;19.026;2023-02-16T08:41:49;99050.75;;;0.70;63.92
34081;BME280;20358;50.272;19.026;2023-02-16T08:44:54;99055.72;;;0.79;63.91
34081;BME280;20358;50.272;19.026;2023-02-16T08:48:00;99059.06;;;0.84;64.15
34081;BME280;20358;50.272;19.026;2023-02-16T08:51:12;99021.97;;;0.78;63.53
34081;BME280;20358;50.272;19.026;2023-02-16T08:54:22;99038.97;;;0.91;63.63
34081;BME280;20358;50.272;19.026;2023-02-16T08:57:32;99060.75;;;0.87;62.94
34081;BME280;20358;50.272;19.026;2023-02-16T09:00:39;99050.88;;;1.01;63.26
34081;BME280;20358;50.272;19.026;2023-02-16T09:03:45;99052.16;;;1.17;63.58
34081;BME280;20358;50.272;19.026;2023-02-16T09:06:56;99052.81;;;1.25;62.07
34081;BME280;20358;50.272;19.026;2023-02-16T09:10:03;99053.47;;;1.33;61.55
34081;BME280;20358;50.272;19.026;2023-02-16T09:13:10;99053.25;;;1.42;61.42
34081;BME280;20358;50.272;19.026;2023-02-16T09:16:19;98964.13;;;1.02;61.70
34081;BME280;20358;50.272;19.026;2023-02-16T09:19:29;99047.56;;;1.60;60.90
34081;BME280;20358;50.272;19.026;2023-02-16T09:22:37;99055.94;;;1.71;61.75
34081;BME280;20358;50.272;19.026;2023-02-16T09:25:44;98940.91;;;0.94;61.09
34081;BME280;20358;50.272;19.026;2023-02-16T09:28:50;99074.34;;;1.64;61.04
34081;BME280;20358;50.272;19.026;2023-02-16T09:31:59;99062.91;;;1.69;60.69
34081;BME280;20358;50.272;19.026;2023-02-16T09:35:05;99062.16;;;1.66;59.97
34081;BME280;20358;50.272;19.026;2023-02-16T09:38:15;99049.88;;;1.69;61.17
34081;BME280;20358;50.272;19.026;2023-02-16T09:41:30;99069.56;;;1.79;60.40
34081;BME280;20358;50.272;19.026;2023-02-16T09:44:52;99059.63;;;1.94;59.62
34081;BME280;20358;50.272;19.026;2023-02-16T09:48:21;99062.09;;;2.00;59.89
34081;BME280;20358;50.272;19.026;2023-02-16T09:51:35;99055.66;;;2.11;59.16
34081;BME280;20358;50.272;19.026;2023-02-16T09:54:52;99060.31;;;2.00;59.08
34081;BME280;20358;50.272;19.026;2023-02-16T09:58:21;99051.81;;;1.94;60.42
34081;BME280;20358;50.272;19.026;2023-02-16T10:01:40;99055.75;;;1.77;60.16
34081;BME280;20358;50.272;19.026;2023-02-16T10:08:29;99052.81;;;1.90;59.56
34081;BME280;20358;50.272;19.026;2023-02-16T10:11:48;99048.50;;;1.89;60.72
34081;BME280;20358;50.272;19.026;2023-02-16T10:15:02;99051.22;;;2.15;59.29
34081;BME280;20358;50.272;19.026;2023-02-16T10:18:21;99044.88;;;2.23;58.37
34081;BME280;20358;50.272;19.026;2023-02-16T10:21:32;99044.84;;;2.25;58.08
34081;BME280;20358;50.272;19.026;2023-02-16T10:24:46;99043.34;;;2.46;58.04
34081;BME280;20358;50.272;19.026;2023-02-16T10:28:14;99037.78;;;2.56;58.59
34081;BME280;20358;50.272;19.026;2023-02-16T10:31:31;99023.38;;;2.72;57.61
34081;BME280;20358;50.272;19.026;2023-02-16T10:34:48;99021.94;;;2.88;58.71
34081;BME280;20358;50.272;19.026;2023-02-16T10:38:04;99020.34;;;3.11;57.15
34081;BME280;20358;50.272;19.026;2023-02-16T10:41:26;99018.84;;;3.03;56.68
34081;BME280;20358;50.272;19.026;2023-02-16T10:44:46;99017.13;;;3.02;56.65
34081;BME280;20358;50.272;19.026;2023-02-16T10:47:56;99011.50;;;3.15;57.21
34081;BME280;20358;50.272;19.026;2023-02-16T10:51:07;99005.88;;;3.27;55.72
34081;BME280;20358;50.272;19.026;2023-02-16T10:54:21;98999.69;;;3.29;57.03
34081;BME280;20358;50.272;19.026;2023-02-16T10:57:31;98987.66;;;3.50;56.32
34081;BME280;20358;50.272;19.026;2023-02-16T11:00:49;98979.56;;;3.56;55.27
34081;BME280;20358;50.272;19.026;2023-02-16T11:04:01;98991.66;;;3.58;54.52
34081;BME280;20358;50.272;19.026;2023-02-16T11:07:10;98974.91;;;3.64;55.67
34081;BME280;20358;50.272;19.026;2023-02-16T11:10:21;98972.84;;;3.74;55.44
34081;BME280;20358;50.272;19.026;2023-02-16T11:13:48;98969.69;;;3.89;55.30
34081;BME280;20358;50.272;19.026;2023-02-16T11:17:11;98972.34;;;3.87;54.54
34081;BME280;20358;50.272;19.026;2023-02-16T11:20:28;98965.34;;;3.88;53.76
34081;BME280;20358;50.272;19.026;2023-02-16T11:23:38;98960.09;;;3.89;54.57
34081;BME280;20358;50.272;19.026;2023-02-16T11:26:58;98964.69;;;3.83;54.41
34081;BME280;20358;50.272;19.026;2023-02-16T11:30:21;98949.78;;;3.85;54.62
34081;BME280;20358;50.272;19.026;2023-02-16T11:33:37;98944.03;;;3.98;55.17
34081;BME280;20358;50.272;19.026;2023-02-16T11:36:46;98953.91;;;4.13;55.03
34081;BME280;20358;50.272;19.026;2023-02-16T11:39:55;98900.91;;;3.88;54.03
34081;BME280;20358;50.272;19.026;2023-02-16T11:43:04;98944.66;;;4.26;55.23
34081;BME280;20358;50.272;19.026;2023-02-16T11:46:15;98944.19;;;4.39;54.17
34081;BME280;20358;50.272;19.026;2023-02-16T11:49:33;98951.06;;;4.41;53.46
34081;BME280;20358;50.272;19.026;2023-02-16T11:52:41;98949.28;;;4.42;53.35
34081;BME280;20358;50.272;19.026;2023-02-16T11:55:49;98942.97;;;4.25;53.38
34081;BME280;20358;50.272;19.026;2023-02-16T11:59:06;98936.91;;;4.25;53.32
34081;BME280;20358;50.272;19.026;2023-02-16T12:03:05;98931.28;;;4.34;54.29
34081;BME280;20358;50.272;19.026;2023-02-16T12:06:40;98938.03;;;4.40;53.47
34081;BME280;20358;50.272;19.026;2023-02-16T12:10:07;98924.78;;;4.44;52.75
34081;BME280;20358;50.272;19.026;2023-02-16T12:13:20;98931.41;;;4.53;53.21
34081;BME280;20358;50.272;19.026;2023-02-16T12:16:40;98928.34;;;4.63;52.74
34081;BME280;20358;50.272;19.026;2023-02-16T12:20:01;98926.38;;;4.68;53.20
34081;BME280;20358;50.272;19.026;2023-02-16T12:23:35;98932.22;;;4.75;52.44
34081;BME280;20358;50.272;19.026;2023-02-16T12:26:49;98932.09;;;4.78;52.63
34081;BME280;20358;50.272;19.026;2023-02-16T12:30:11;98930.00;;;4.86;52.58
34081;BME280;20358;50.272;19.026;2023-02-16T12:33:39;98912.97;;;4.96;52.41
34081;BME280;20358;50.272;19.026;2023-02-16T12:36:58;98906.97;;;4.94;51.68
34081;BME280;20358;50.272;19.026;2023-02-16T12:40:26;98916.06;;;5.06;51.96
34081;BME280;20358;50.272;19.026;2023-02-16T12:43:45;98916.66;;;5.12;51.23
34081;BME280;20358;50.272;19.026;2023-02-16T12:47:00;98910.53;;;4.93;51.21
34081;BME280;20358;50.272;19.026;2023-02-16T12:50:18;98908.13;;;5.07;51.48
34081;BME280;20358;50.272;19.026;2023-02-16T12:53:33;98898.66;;;5.05;51.11
34081;BME280;20358;50.272;19.026;2023-02-16T12:56:56;98902.00;;;5.08;51.61
34081;BME280;20358;50.272;19.026;2023-02-16T13:00:17;98884.91;;;5.00;51.07
34081;BME280;20358;50.272;19.026;2023-02-16T13:03:33;98891.00;;;5.00;51.06
34081;BME280;20358;50.272;19.026;2023-02-16T13:06:50;98887.75;;;4.95;51.39
34081;BME280;20358;50.272;19.026;2023-02-16T13:10:16;98880.78;;;4.94;51.58
34081;BME280;20358;50.272;19.026;2023-02-16T13:13:32;98874.53;;;4.98;51.13
34081;BME280;20358;50.272;19.026;2023-02-16T13:16:45;98884.59;;;4.87;50.53
34081;BME280;20358;50.272;19.026;2023-02-16T13:19:53;98880.59;;;4.78;51.38
34081;BME280;20358;50.272;19.026;2023-02-16T13:23:33;98887.34;;;4.64;51.55
34081;BME280;20358;50.272;19.026;2023-02-16T13:26:59;98875.81;;;4.68;51.84
34081;BME280;20358;50.272;19.026;2023-02-16T13:30:44;98877.22;;;4.76;52.17
34081;BME280;20358;50.272;19.026;2023-02-16T13:34:14;98876.34;;;4.76;51.93
34081;BME280;20358;50.272;19.026;2023-02-16T13:37:53;98885.50;;;4.66;51.83
34081;BME280;20358;50.272;19.026;2023-02-16T13:41:32;98892.06;;;4.76;52.45
34081;BME280;20358;50.272;19.026;2023-02-16T13:44:49;98869.81;;;4.66;50.90
34081;BME280;20358;50.272;19.026;2023-02-16T13:48:12;98869.81;;;4.66;51.25
34081;BME280;20358;50.272;19.026;2023-02-16T13:51:24;98867.84;;;4.71;51.49
34081;BME280;20358;50.272;19.026;2023-02-16T13:54:35;98857.25;;;4.74;51.01
34081;BME280;20358;50.272;19.026;2023-02-16T13:58:03;98854.19;;;4.84;51.27
34081;BME280;20358;50.272;19.026;2023-02-16T14:01:35;98856.34;;;4.95;51.36
34081;BME280;20358;50.272;19.026;2023-02-16T14:05:09;98850.88;;;5.00;51.45
34081;BME280;20358;50.272;19.026;2023-02-16T14:08:19;98856.03;;;5.01;51.29
34081;BME280;20358;50.272;19.026;2023-02-16T14:12:02;98852.25;;;4.88;51.21
34081;BME280;20358;50.272;19.026;2023-02-16T14:15:19;98856.06;;;4.81;51.75
34081;BME280;20358;50.272;19.026;2023-02-16T14:18:31;98861.06;;;4.87;51.63
34081;BME280;20358;50.272;19.026;2023-02-16T14:21:45;98852.16;;;4.71;51.44
34081;BME280;20358;50.272;19.026;2023-02-16T14:24:59;98851.91;;;4.77;51.30
34081;BME280;20358;50.272;19.026;2023-02-16T14:32:15;98848.81;;;4.87;51.73
34081;BME280;20358;50.272;19.026;2023-02-16T14:35:32;98856.72;;;4.86;51.75
34081;BME280;20358;50.272;19.026;2023-02-16T14:38:47;98853.88;;;4.72;51.80
34081;BME280;20358;50.272;19.026;2023-02-16T14:42:05;98850.59;;;4.67;52.01
34081;BME280;20358;50.272;19.026;2023-02-16T14:45:36;98854.00;;;4.49;52.14
34081;BME280;20358;50.272;19.026;2023-02-16T14:49:32;98858.41;;;4.47;52.62
34081;BME280;20358;50.272;19.026;2023-02-16T14:57:06;98854.84;;;4.07;53.40
34081;BME280;20358;50.272;19.026;2023-02-16T15:00:26;98867.38;;;3.99;53.73
34081;BME280;20358;50.272;19.026;2023-02-16T15:03:40;98859.44;;;4.01;53.36
34081;BME280;20358;50.272;19.026;2023-02-16T15:06:50;98852.03;;;3.90;54.06
34081;BME280;20358;50.272;19.026;2023-02-16T15:09:57;98850.09;;;3.95;54.29
34081;BME280;20358;50.272;19.026;2023-02-16T15:13:22;98846.81;;;3.90;54.64
34081;BME280;20358;50.272;19.026;2023-02-16T15:16:31;98847.19;;;3.80;54.23
34081;BME280;20358;50.272;19.026;2023-02-16T15:19:39;98858.44;;;3.60;55.11
34081;BME280;20358;50.272;19.026;2023-02-16T15:22:48;98858.31;;;3.63;55.31
34081;BME280;20358;50.272;19.026;2023-02-16T15:25:58;98862.72;;;3.61;54.93
34081;BME280;20358;50.272;19.026;2023-02-16T15:29:23;98864.56;;;3.59;54.84
34081;BME280;20358;50.272;19.026;2023-02-16T15:32:31;98866.66;;;3.49;54.98
34081;BME280;20358;50.272;19.026;2023-02-16T15:35:39;98861.66;;;3.43;55.85
34081;BME280;20358;50.272;19.026;2023-02-16T15:38:56;98863.38;;;3.44;56.10
34081;BME280;20358;50.272;19.026;2023-02-16T15:42:19;98866.59;;;3.28;56.04
34081;BME280;20358;50.272;19.026;2023-02-16T15:45:34;98858.19;;;3.20;55.48
34081;BME280;20358;50.272;19.026;2023-02-16T15:48:42;98849.94;;;3.09;56.03
34081;BME280;20358;50.272;19.026;2023-02-16T15:51:48;98841.75;;;2.94;55.99
34081;BME280;20358;50.272;19.026;2023-02-16T15:54:54;98836.88;;;2.85;56.18
34081;BME280;20358;50.272;19.026;2023-02-16T15:58:01;98824.81;;;2.81;56.08
34081;BME280;20358;50.272;19.026;2023-02-16T16:01:19;98839.31;;;2.65;57.44
34081;BME280;20358;50.272;19.026;2023-02-16T16:04:33;98838.69;;;2.59;57.10
34081;BME280;20358;50.272;19.026;2023-02-16T16:07:43;98836.94;;;2.59;57.39
34081;BME280;20358;50.272;19.026;2023-02-16T16:10:49;98839.84;;;2.50;57.71
34081;BME280;20358;50.272;19.026;2023-02-16T16:13:56;98845.28;;;2.44;57.61
34081;BME280;20358;50.272;19.026;2023-02-16T16:17:09;98847.31;;;2.34;57.07
34081;BME280;20358;50.272;19.026;2023-02-16T16:20:27;98848.19;;;2.35;57.25
34081;BME280;20358;50.272;19.026;2023-02-16T16:23:35;98844.09;;;2.28;57.31
34081;BME280;20358;50.272;19.026;2023-02-16T16:26:52;98848.53;;;2.24;57.46
34081;BME280;20358;50.272;19.026;2023-02-16T16:30:20;98849.59;;;2.19;58.96
34081;BME280;20358;50.272;19.026;2023-02-16T16:33:53;98849.69;;;2.16;57.84
34081;BME280;20358;50.272;19.026;2023-02-16T16:37:02;98853.22;;;2.15;59.06
34081;BME280;20358;50.272;19.026;2023-02-16T16:40:23;98768.66;;;1.71;59.09
34081;BME280;20358;50.272;19.026;2023-02-16T16:43:37;98851.41;;;2.17;59.37
34081;BME280;20358;50.272;19.026;2023-02-16T16:46:55;98849.69;;;2.16;58.25
34081;BME280;20358;50.272;19.026;2023-02-16T16:50:32;98848.09;;;2.12;59.70
34081;BME280;20358;50.272;19.026;2023-02-16T16:53:50;98853.59;;;2.03;59.07
34081;BME280;20358;50.272;19.026;2023-02-16T16:56:59;98848.50;;;2.00;59.23
34081;BME280;20358;50.272;19.026;2023-02-16T17:03:20;98836.41;;;1.69;60.25
34081;BME280;20358;50.272;19.026;2023-02-16T17:06:29;98815.16;;;1.55;59.94
34081;BME280;20358;50.272;19.026;2023-02-16T17:09:35;98845.91;;;1.70;60.52
34081;BME280;20358;50.272;19.026;2023-02-16T17:12:40;98850.69;;;1.56;59.90
34081;BME280;20358;50.272;19.026;2023-02-16T17:15:52;98845.72;;;1.49;60.83
34081;BME280;20358;50.272;19.026;2023-02-16T17:18:59;98843.16;;;1.47;59.69